This is the latest recevied weather packets stored in our database for station/object DG1GMY-13. If no packets are shown the sender has not sent any weather packets the latest 10 day(s).
| Time | Temp. | Humidity | Pressure | Rain* | Wind** | Luminosity | Snow |
|---|---|---|---|---|---|---|---|
| 1777792198 | 12.22° C | 100% | 1016.6 hPa | - | - | - | - |
| 1777790392 | 14.44° C | 84% | 1017.2 hPa | - | - | - | - |
| 1777788586 | 15° C | 73% | 1016.3 hPa | - | - | - | - |
| 1777786781 | 13.89° C | 88% | 1016.4 hPa | - | - | - | - |
| 1777784974 | 14.44° C | 70% | 1016.7 hPa | - | - | - | - |
| 1777783169 | 13.33° C | 71% | 1016.5 hPa | - | - | - | - |
| 1777781363 | 13.33° C | 68% | 1016.1 hPa | - | - | - | - |
| 1777779557 | 12.78° C | 71% | 1016.2 hPa | - | - | - | - |
| 1777777751 | 13.33° C | 65% | 1016 hPa | - | - | - | - |
| 1777775945 | 13.33° C | 65% | 1016.1 hPa | - | - | - | - |
| 1777774139 | 15° C | 53% | 1016.2 hPa | - | - | - | - |
| 1777772333 | 15° C | 53% | 1016.3 hPa | - | - | - | - |
| 1777770527 | 15° C | 54% | 1016.3 hPa | - | - | - | - |
| 1777768721 | 15° C | 54% | 1016.6 hPa | - | - | - | - |
| 1777766915 | 16.11° C | 49% | 1016.7 hPa | - | - | - | - |
| 1777765109 | 15.56° C | 56% | 1017 hPa | - | - | - | - |
| 1777763303 | 16.67° C | 52% | 1017.1 hPa | - | - | - | - |
| 1777761497 | 17.22° C | 53% | 1017 hPa | - | - | - | - |
| 1777759691 | 17.22° C | 56% | 1016.9 hPa | - | - | - | - |
| 1777757885 | 17.22° C | 56% | 1016.7 hPa | - | - | - | - |
| 1777756079 | 17.22° C | 57% | 1016.9 hPa | - | - | - | - |
| 1777754273 | 17.22° C | 59% | 1016.9 hPa | - | - | - | - |
| 1777752467 | 18.33° C | 51% | 1016.6 hPa | - | - | - | - |
| 1777750661 | 18.89° C | 51% | 1016.5 hPa | - | - | - | - |
| 1777748855 | 19.44° C | 49% | 1016.5 hPa | - | - | - | - |
* Rain since midnight (hover to see other rain measurements)
** Current wind speed in m/s (hover to see current wind gust speed)